Time;durP1;ratioP1;P1;durP2;ratioP2;P2;SDS_P1;SDS_P2;PMS_P1;PMS_P2;Temp;Humidity;BMP_temperature;BMP_pressure;BME280_temperature;BME280_humidity;BME280_pressure;Samples;Min_cycle;Max_cycle;Signal;HPM_P1;HPM_P2
2021/11/15 00:00:08;;;;;;;44.17;34.45;;;23.60;99.90;;;;;;4200034;28;20053;-68
2021/11/15 00:02:15;;;;;;;53.00;37.15;;;23.70;99.90;;;;;;4192958;28;20059;-68
2021/11/15 00:04:22;;;;;;;52.92;37.67;;;23.50;99.90;;;;;;4194768;28;20055;-70
2021/11/15 00:06:27;;;;;;;57.20;42.30;;;23.50;99.90;;;;;;4171985;28;20051;-69
2021/11/15 00:08:35;;;;;;;52.70;39.97;;;23.60;99.90;;;;;;4198489;28;20047;-69
2021/11/15 00:10:40;;;;;;;51.58;39.50;;;23.50;99.90;;;;;;4197180;28;20037;-68
2021/11/15 00:12:47;;;;;;;66.53;41.45;;;23.60;99.90;;;;;;4186861;28;20325;-67
2021/11/15 00:14:51;;;;;;;56.95;39.80;;;23.70;99.90;;;;;;4195082;28;20045;-68
2021/11/15 00:16:58;;;;;;;50.65;37.83;;;23.70;99.90;;;;;;4198593;28;20143;-68
2021/11/15 00:19:03;;;;;;;55.38;37.97;;;24.00;99.90;;;;;;4202876;28;20076;-68
2021/11/15 00:21:07;;;;;;;58.88;39.22;;;23.90;99.90;;;;;;4193441;28;20060;-70
2021/11/15 00:23:12;;;;;;;50.72;36.72;;;24.00;99.90;;;;;;4192985;28;20071;-69
2021/11/15 00:25:16;;;;;;;56.15;39.80;;;23.90;99.90;;;;;;4200339;28;20048;-69
2021/11/15 00:27:20;;;;;;;52.15;37.70;;;24.00;99.90;;;;;;4196174;28;20110;-71
2021/11/15 00:29:25;;;;;;;49.40;35.80;;;24.10;99.70;;;;;;4181659;28;20732;-68
2021/11/15 00:31:30;;;;;;;46.42;33.80;;;24.20;99.40;;;;;;4192633;28;20065;-68
2021/11/15 00:33:35;;;;;;;46.38;33.55;;;24.30;99.30;;;;;;4176943;28;20053;-68
2021/11/15 00:35:39;;;;;;;48.33;31.75;;;24.20;99.40;;;;;;4181233;28;20534;-68
2021/11/15 00:37:44;;;;;;;45.83;30.85;;;24.30;99.10;;;;;;4178959;28;20044;-69
2021/11/15 00:39:49;;;;;;;36.05;27.65;;;24.30;99.00;;;;;;4198372;28;20096;-69
2021/11/15 00:41:55;;;;;;;37.88;28.60;;;24.10;98.70;;;;;;4190472;28;20332;-69
2021/11/15 00:43:59;;;;;;;37.90;27.73;;;23.80;99.30;;;;;;4195586;28;20807;-68
2021/11/15 00:46:04;;;;;;;38.83;30.00;;;23.90;99.30;;;;;;4195397;28;20049;-69
2021/11/15 00:48:09;;;;;;;38.55;29.80;;;24.00;99.00;;;;;;4190361;28;20490;-68
2021/11/15 00:50:18;;;;;;;37.15;30.48;;;24.20;98.70;;;;;;4196802;28;20044;-69
2021/11/15 00:52:23;;;;;;;38.45;29.33;;;24.30;98.50;;;;;;4188739;28;20046;-69
2021/11/15 00:54:27;;;;;;;36.22;29.17;;;24.30;99.00;;;;;;4188896;28;20159;-69
2021/11/15 00:56:32;;;;;;;35.58;25.58;;;24.30;98.70;;;;;;4195227;28;20048;-68
2021/11/15 00:58:37;;;;;;;35.42;26.38;;;24.30;98.10;;;;;;4195083;28;20037;-68
2021/11/15 01:00:44;;;;;;;41.85;28.60;;;24.40;98.00;;;;;;4199895;28;20040;-68
2021/11/15 01:02:48;;;;;;;37.72;28.85;;;24.40;98.60;;;;;;4189481;28;20048;-69
2021/11/15 01:04:52;;;;;;;34.70;27.08;;;24.40;98.40;;;;;;4199420;28;20063;-68
2021/11/15 01:06:57;;;;;;;38.83;28.40;;;24.50;98.30;;;;;;4199060;28;20486;-68
2021/11/15 01:09:02;;;;;;;37.38;28.27;;;24.50;98.60;;;;;;4197512;28;20132;-69
2021/11/15 01:11:07;;;;;;;35.70;26.25;;;24.60;98.50;;;;;;4195902;28;20047;-69
2021/11/15 01:13:12;;;;;;;33.42;24.67;;;24.60;98.00;;;;;;4196060;28;20032;-67
2021/11/15 01:15:19;;;;;;;28.60;23.35;;;24.80;97.90;;;;;;4202317;28;20121;-67
2021/11/15 01:17:35;;;;;;;26.00;21.00;;;24.90;97.80;;;;;;4203778;28;20093;-67
2021/11/15 01:19:42;;;;;;;29.48;20.38;;;24.80;97.10;;;;;;4205562;28;20452;-68
2021/11/15 01:21:48;;;;;;;25.17;18.85;;;24.80;96.80;;;;;;4204393;28;20040;-67
2021/11/15 01:23:52;;;;;;;25.25;18.38;;;24.90;96.50;;;;;;4204124;28;20364;-67
2021/11/15 01:25:57;;;;;;;23.85;17.95;;;25.00;96.40;;;;;;4202159;28;20040;-68
2021/11/15 01:28:01;;;;;;;30.42;18.48;;;25.10;96.30;;;;;;4199393;28;20526;-67
2021/11/15 01:30:09;;;;;;;27.33;18.55;;;25.10;96.80;;;;;;4200724;28;20047;-68
2021/11/15 01:32:15;;;;;;;24.58;17.42;;;25.10;96.40;;;;;;4204988;28;20059;-67
2021/11/15 01:34:21;;;;;;;22.27;17.75;;;25.00;96.40;;;;;;4205478;28;20044;-68
2021/11/15 01:36:25;;;;;;;24.38;17.55;;;25.10;96.40;;;;;;4204696;28;20507;-65
2021/11/15 01:38:30;;;;;;;25.13;16.98;;;25.10;96.20;;;;;;4206501;28;20394;-65
2021/11/15 01:40:35;;;;;;;24.30;17.67;;;25.20;95.50;;;;;;4205316;28;20052;-65
2021/11/15 01:42:40;;;;;;;22.65;16.55;;;25.10;95.20;;;;;;4206285;28;20139;-68
2021/11/15 01:44:45;;;;;;;23.73;15.68;;;25.20;95.20;;;;;;4204952;28;20102;-68
2021/11/15 01:46:49;;;;;;;20.02;14.60;;;25.30;95.00;;;;;;4203203;28;20276;-68
2021/11/15 01:48:54;;;;;;;19.40;14.52;;;25.40;94.70;;;;;;4202520;28;20052;-68
2021/11/15 01:50:58;;;;;;;22.52;14.45;;;25.60;94.60;;;;;;4207130;28;20048;-68
2021/11/15 01:53:04;;;;;;;23.50;13.75;;;25.70;94.60;;;;;;4206669;28;20048;-68
2021/11/15 01:55:09;;;;;;;16.27;12.80;;;25.70;94.40;;;;;;4204886;28;20048;-67
2021/11/15 01:57:14;;;;;;;13.65;11.93;;;25.70;94.30;;;;;;4206514;28;20076;-67
2021/11/15 01:59:19;;;;;;;15.65;10.73;;;25.70;93.80;;;;;;4191149;28;20052;-68
2021/11/15 02:01:24;;;;;;;13.02;10.88;;;25.80;93.90;;;;;;4204502;28;20124;-67
2021/11/15 02:03:29;;;;;;;15.60;10.45;;;25.80;93.20;;;;;;4205294;28;20044;-67
2021/11/15 02:05:33;;;;;;;14.82;10.00;;;25.90;93.30;;;;;;4200569;28;20399;-68
2021/11/15 02:07:38;;;;;;;13.23;9.80;;;25.90;93.10;;;;;;4203041;28;20423;-67
2021/11/15 02:09:43;;;;;;;17.75;10.38;;;26.00;93.20;;;;;;4205128;28;20052;-67
2021/11/15 02:11:54;;;;;;;16.65;10.10;;;26.00;93.00;;;;;;4186911;28;20090;-67
2021/11/15 02:14:00;;;;;;;12.10;10.20;;;26.00;92.60;;;;;;4206048;28;20082;-67
2021/11/15 02:16:06;;;;;;;12.88;9.77;;;26.10;92.60;;;;;;4206243;28;20055;-68
2021/11/15 02:18:11;;;;;;;13.05;9.73;;;26.10;92.40;;;;;;4185527;28;20049;-67
2021/11/15 02:20:26;;;;;;;12.13;9.25;;;26.10;92.00;;;;;;4202441;28;20392;-68
2021/11/15 02:22:30;;;;;;;10.38;9.07;;;26.20;92.10;;;;;;4203467;28;20055;-67
2021/11/15 02:24:34;;;;;;;13.75;10.98;;;26.20;92.10;;;;;;4205753;28;20359;-67
2021/11/15 02:26:39;;;;;;;18.77;10.48;;;26.20;92.00;;;;;;4200842;28;20044;-67
2021/11/15 02:28:45;;;;;;;12.73;10.07;;;26.20;91.90;;;;;;4201367;28;20085;-67
2021/11/15 02:30:50;;;;;;;11.57;9.43;;;26.20;91.90;;;;;;4201219;28;20433;-68
2021/11/15 02:32:54;;;;;;;10.27;8.25;;;26.30;91.90;;;;;;4203584;28;20096;-67
2021/11/15 02:34:59;;;;;;;11.43;9.00;;;26.40;91.90;;;;;;4200460;28;20052;-68
2021/11/15 02:37:04;;;;;;;11.30;8.30;;;26.40;91.60;;;;;;4200534;28;20162;-68
2021/11/15 02:39:08;;;;;;;17.05;10.00;;;26.50;91.50;;;;;;4202092;28;20494;-67
2021/11/15 02:41:13;;;;;;;12.98;9.38;;;26.50;91.50;;;;;;4206508;28;20048;-68
2021/11/15 02:43:17;;;;;;;10.48;8.60;;;26.50;91.50;;;;;;4185379;28;20037;-67
2021/11/15 02:45:22;;;;;;;18.23;13.07;;;26.60;91.10;;;;;;4205602;28;20050;-67
2021/11/15 02:47:27;;;;;;;16.10;10.88;;;26.60;90.80;;;;;;4203245;28;20047;-67
2021/11/15 02:49:31;;;;;;;11.95;8.52;;;26.60;90.70;;;;;;4203752;28;20068;-67
2021/11/15 02:51:36;;;;;;;11.93;7.90;;;26.70;90.80;;;;;;4202343;28;20072;-67
2021/11/15 02:53:41;;;;;;;9.50;8.38;;;26.70;90.70;;;;;;4201976;28;20036;-68
2021/11/15 02:55:45;;;;;;;7.80;7.00;;;26.80;90.80;;;;;;4202584;28;20426;-66
2021/11/15 02:57:51;;;;;;;11.35;8.13;;;26.80;91.00;;;;;;4205810;28;20072;-67
2021/11/15 02:59:55;;;;;;;12.25;8.57;;;26.90;91.00;;;;;;4188972;28;20438;-67
2021/11/15 03:01:59;;;;;;;14.15;8.32;;;26.90;91.10;;;;;;4201631;28;20813;-67
2021/11/15 03:04:05;;;;;;;13.32;8.43;;;27.00;90.80;;;;;;4202289;28;20091;-67
2021/11/15 03:06:12;;;;;;;8.45;7.55;;;27.00;90.70;;;;;;4201063;28;20049;-67
2021/11/15 03:08:19;;;;;;;9.10;6.72;;;27.00;90.50;;;;;;4181109;28;20610;-67
2021/11/15 03:10:28;;;;;;;11.32;6.78;;;27.00;90.40;;;;;;4203845;28;20470;-67
2021/11/15 03:12:35;;;;;;;10.82;7.43;;;27.00;90.20;;;;;;4206898;28;20040;-68
2021/11/15 03:14:40;;;;;;;9.82;7.18;;;27.10;90.20;;;;;;4203671;28;20257;-67
2021/11/15 03:16:45;;;;;;;8.90;7.32;;;27.10;90.20;;;;;;4206053;28;20047;-68
2021/11/15 03:18:50;;;;;;;8.00;6.65;;;27.10;89.70;;;;;;4200176;28;20078;-68
2021/11/15 03:20:57;;;;;;;8.23;6.82;;;27.10;90.00;;;;;;4205388;28;20090;-68
2021/11/15 03:23:06;;;;;;;10.00;7.00;;;27.20;90.10;;;;;;4201065;28;20052;-67
2021/11/15 03:25:10;;;;;;;9.27;6.88;;;27.20;90.00;;;;;;4186685;28;20040;-67
2021/11/15 03:27:14;;;;;;;8.45;6.82;;;27.30;90.00;;;;;;4200364;28;20391;-67
2021/11/15 03:29:19;;;;;;;7.65;6.40;;;27.30;90.10;;;;;;4205728;28;20389;-67
2021/11/15 03:31:32;;;;;;;8.85;6.80;;;27.40;89.50;;;;;;4200842;28;20461;-68
2021/11/15 03:33:37;;;;;;;7.63;6.82;;;27.40;89.60;;;;;;4184354;28;20124;-68
2021/11/15 03:35:44;;;;;;;11.13;6.78;;;27.50;89.50;;;;;;4204869;28;20043;-68
2021/11/15 03:37:49;;;;;;;8.85;6.55;;;27.50;90.10;;;;;;4185750;28;20064;-68
2021/11/15 03:39:53;;;;;;;11.18;6.57;;;27.50;90.00;;;;;;4204425;28;20086;-68
2021/11/15 03:41:58;;;;;;;7.45;6.68;;;27.60;89.80;;;;;;4204555;28;20040;-68
2021/11/15 03:44:04;;;;;;;11.55;6.65;;;27.60;88.90;;;;;;4205515;28;20048;-68
2021/11/15 03:46:08;;;;;;;8.27;6.68;;;27.60;88.60;;;;;;4201185;28;20072;-68
2021/11/15 03:48:13;;;;;;;9.50;6.47;;;27.60;88.70;;;;;;4188890;28;20617;-68
2021/11/15 03:50:18;;;;;;;12.48;6.30;;;27.70;88.70;;;;;;4208112;28;20544;-68
2021/11/15 03:52:23;;;;;;;7.65;5.95;;;27.70;89.00;;;;;;4209840;28;20048;-68
2021/11/15 03:54:27;;;;;;;7.25;6.55;;;27.80;89.00;;;;;;4198698;28;20075;-68
2021/11/15 03:56:32;;;;;;;7.95;6.68;;;27.80;89.20;;;;;;4205671;28;20100;-68
2021/11/15 03:58:37;;;;;;;8.75;6.07;;;27.90;88.50;;;;;;4208252;28;20430;-68
2021/11/15 04:00:41;;;;;;;9.90;6.45;;;27.90;88.60;;;;;;4179287;28;20044;-67
2021/11/15 04:02:53;;;;;;;11.15;6.65;;;27.90;88.40;;;;;;4169927;28;20388;-68
2021/11/15 04:05:02;;;;;;;7.25;6.47;;;28.00;88.40;;;;;;4203161;28;20072;-68
2021/11/15 04:07:10;;;;;;;10.68;5.95;;;28.10;88.40;;;;;;4199952;28;20040;-68
2021/11/15 04:09:15;;;;;;;9.25;6.72;;;28.20;88.20;;;;;;4209166;28;20071;-68
2021/11/15 04:11:21;;;;;;;7.38;6.43;;;28.20;87.60;;;;;;4200513;28;20055;-67
2021/11/15 04:13:33;;;;;;;11.00;6.55;;;28.20;86.80;;;;;;4174798;28;20089;-68
2021/11/15 04:15:37;;;;;;;8.25;6.22;;;28.10;87.10;;;;;;4201052;28;20048;-68
2021/11/15 04:17:43;;;;;;;9.32;6.70;;;28.20;87.80;;;;;;4181248;28;20044;-68
2021/11/15 04:19:48;;;;;;;8.88;6.38;;;28.20;87.10;;;;;;4199681;28;20080;-68
2021/11/15 04:21:53;;;;;;;9.98;6.20;;;28.30;87.30;;;;;;4183803;28;20045;-68
2021/11/15 04:23:57;;;;;;;12.43;7.03;;;28.30;87.50;;;;;;4200249;28;20057;-68
2021/11/15 04:26:02;;;;;;;7.65;6.32;;;28.30;87.10;;;;;;4199694;28;20056;-68
2021/11/15 04:28:07;;;;;;;10.00;6.68;;;28.30;86.50;;;;;;4199224;28;20062;-68
2021/11/15 04:30:12;;;;;;;9.38;6.70;;;28.40;86.80;;;;;;4201768;28;20048;-68
2021/11/15 04:32:19;;;;;;;10.23;6.63;;;28.40;86.10;;;;;;4182812;28;20056;-68
2021/11/15 04:34:24;;;;;;;8.43;6.63;;;28.40;86.50;;;;;;4204568;28;20135;-68
2021/11/15 04:36:28;;;;;;;9.90;6.72;;;28.40;86.70;;;;;;4202481;28;20139;-68
2021/11/15 04:38:33;;;;;;;6.88;6.18;;;28.50;86.60;;;;;;4200273;28;20052;-69
2021/11/15 04:40:38;;;;;;;12.30;6.35;;;28.60;86.70;;;;;;4182065;28;20048;-68
2021/11/15 04:42:43;;;;;;;9.95;6.88;;;28.70;87.00;;;;;;4183884;28;20456;-68
2021/11/15 04:44:50;;;;;;;9.60;6.63;;;28.70;86.70;;;;;;4197549;28;20587;-69
2021/11/15 04:46:56;;;;;;;8.38;6.00;;;28.70;86.50;;;;;;4202881;28;20044;-68
2021/11/15 04:49:01;;;;;;;7.38;5.95;;;28.70;85.90;;;;;;4202626;28;20036;-69
2021/11/15 04:51:06;;;;;;;8.40;6.40;;;28.60;85.60;;;;;;4183055;28;20049;-68
2021/11/15 04:53:11;;;;;;;9.90;6.32;;;28.70;86.20;;;;;;4203422;28;20044;-68
2021/11/15 04:55:17;;;;;;;8.32;6.68;;;28.80;86.50;;;;;;4208651;28;20529;-69
2021/11/15 04:57:22;;;;;;;6.90;5.85;;;28.80;87.00;;;;;;4199460;28;20456;-68
2021/11/15 04:59:26;;;;;;;7.38;5.47;;;28.90;86.20;;;;;;4200490;28;20149;-69
2021/11/15 05:01:30;;;;;;;6.80;5.75;;;29.00;85.60;;;;;;4200641;28;20140;-69
2021/11/15 05:03:35;;;;;;;12.05;5.57;;;29.00;84.70;;;;;;4202707;28;20052;-67
2021/11/15 05:05:42;;;;;;;8.73;5.68;;;29.00;85.00;;;;;;4205286;28;20059;-66
2021/11/15 05:07:47;;;;;;;7.70;5.68;;;28.90;85.60;;;;;;4203768;28;20064;-68
2021/11/15 05:09:52;;;;;;;6.32;5.50;;;28.90;86.10;;;;;;4203630;28;20087;-68
2021/11/15 05:11:57;;;;;;;9.88;5.55;;;28.70;85.00;;;;;;4206512;28;20036;-69
2021/11/15 05:14:01;;;;;;;7.47;5.38;;;28.80;85.80;;;;;;4202014;28;20048;-69
2021/11/15 05:16:06;;;;;;;5.88;4.90;;;28.80;85.20;;;;;;4172905;28;20049;-70
2021/11/15 05:18:15;;;;;;;5.95;4.95;;;28.90;84.90;;;;;;4201874;28;20044;-68
2021/11/15 05:20:20;;;;;;;6.25;5.32;;;28.90;84.80;;;;;;4202859;28;20040;-68
2021/11/15 05:22:25;;;;;;;8.98;5.57;;;28.90;85.20;;;;;;4202207;28;20102;-68
2021/11/15 05:24:29;;;;;;;9.00;4.50;;;28.90;85.60;;;;;;4201694;28;20081;-69
2021/11/15 05:26:34;;;;;;;7.63;4.75;;;29.10;85.50;;;;;;4200084;28;20072;-69
2021/11/15 05:28:39;;;;;;;9.32;5.47;;;29.20;85.40;;;;;;4203361;28;20044;-69
2021/11/15 05:30:44;;;;;;;5.95;5.22;;;29.20;83.70;;;;;;4184857;28;20483;-68
2021/11/15 05:32:49;;;;;;;10.13;5.28;;;29.20;84.40;;;;;;4198724;28;20072;-69
2021/11/15 05:34:57;;;;;;;5.80;4.80;;;29.20;84.50;;;;;;4200505;28;20052;-69
2021/11/15 05:37:04;;;;;;;7.43;4.80;;;29.30;84.80;;;;;;4200927;28;20051;-69
2021/11/15 05:39:09;;;;;;;5.70;4.57;;;29.30;84.30;;;;;;4186247;28;20431;-69
2021/11/15 05:41:13;;;;;;;5.53;4.78;;;29.20;84.20;;;;;;4188801;28;20499;-69
2021/11/15 05:43:18;;;;;;;7.82;4.78;;;29.20;84.00;;;;;;4203834;28;20044;-70
2021/11/15 05:45:24;;;;;;;5.18;4.50;;;29.30;84.20;;;;;;4203443;28;20557;-69
2021/11/15 05:47:29;;;;;;;9.13;4.55;;;29.30;84.10;;;;;;4203889;28;20050;-70
2021/11/15 05:49:33;;;;;;;6.82;4.65;;;29.40;84.50;;;;;;4199362;28;20047;-69
2021/11/15 05:51:37;;;;;;;10.65;4.80;;;29.40;83.90;;;;;;4187986;28;20100;-69
2021/11/15 05:53:46;;;;;;;7.85;4.70;;;29.40;83.50;;;;;;4201438;28;20502;-69
2021/11/15 05:55:50;;;;;;;7.85;4.75;;;29.40;83.80;;;;;;4189095;28;20695;-68
2021/11/15 05:57:55;;;;;;;7.50;4.90;;;29.40;84.00;;;;;;4202911;28;20044;-68
2021/11/15 06:00:00;;;;;;;7.65;5.20;;;29.50;83.90;;;;;;4203150;28;20043;-68
2021/11/15 06:02:11;;;;;;;8.38;4.70;;;29.50;83.60;;;;;;4200573;28;20048;-69
2021/11/15 06:04:16;;;;;;;8.63;4.57;;;29.60;83.90;;;;;;4202715;28;20074;-69
2021/11/15 06:06:21;;;;;;;17.17;4.90;;;29.60;83.70;;;;;;4202966;28;20049;-70
2021/11/15 06:08:25;;;;;;;7.18;4.47;;;29.70;83.60;;;;;;4201483;28;20078;-69
2021/11/15 06:10:29;;;;;;;8.82;5.22;;;29.80;83.50;;;;;;4203381;28;20055;-69
2021/11/15 06:12:34;;;;;;;9.20;4.95;;;29.80;83.80;;;;;;4204809;28;20134;-70
2021/11/15 06:14:39;;;;;;;10.57;5.03;;;29.80;84.30;;;;;;4201054;28;20567;-69
2021/11/15 06:16:44;;;;;;;6.85;4.75;;;29.90;83.40;;;;;;4200717;28;20052;-70
2021/11/15 06:18:49;;;;;;;6.10;4.20;;;29.80;83.20;;;;;;4184939;28;20041;-69
2021/11/15 06:20:53;;;;;;;5.93;4.00;;;29.80;82.90;;;;;;4202482;28;20086;-69
2021/11/15 06:22:58;;;;;;;4.03;3.22;;;29.80;82.80;;;;;;4197910;28;20052;-69
2021/11/15 06:25:03;;;;;;;7.20;3.85;;;29.80;81.70;;;;;;4201404;28;20044;-69
2021/11/15 06:27:08;;;;;;;4.68;3.60;;;29.70;81.60;;;;;;4201883;28;20494;-69
2021/11/15 06:29:12;;;;;;;5.78;3.45;;;29.70;81.80;;;;;;4180180;28;20067;-69
2021/11/15 06:31:16;;;;;;;4.75;3.47;;;29.70;82.50;;;;;;4200205;28;20074;-69
2021/11/15 06:33:21;;;;;;;4.70;3.70;;;29.70;82.70;;;;;;4198668;28;20096;-69
2021/11/15 06:35:27;;;;;;;7.38;3.70;;;29.70;83.30;;;;;;4199605;28;20093;-69
2021/11/15 06:37:32;;;;;;;7.72;3.88;;;29.70;83.20;;;;;;4198344;28;20749;-68
2021/11/15 06:39:37;;;;;;;5.45;3.45;;;29.70;83.10;;;;;;4199887;28;20526;-70
2021/11/15 06:41:42;;;;;;;6.28;4.00;;;29.70;82.80;;;;;;4200463;28;20043;-69
2021/11/15 06:43:47;;;;;;;6.35;3.80;;;29.70;82.70;;;;;;4201313;28;20059;-69
2021/11/15 06:45:52;;;;;;;5.18;3.70;;;29.70;81.60;;;;;;4202341;28;20040;-67
2021/11/15 06:47:57;;;;;;;8.02;3.75;;;29.60;82.10;;;;;;4202324;28;20400;-68
2021/11/15 06:50:02;;;;;;;7.70;4.07;;;29.60;83.20;;;;;;4201281;28;20124;-68
2021/11/15 06:52:08;;;;;;;6.70;3.55;;;29.70;83.30;;;;;;4204039;28;20044;-68
2021/11/15 06:54:13;;;;;;;5.47;3.72;;;29.60;83.30;;;;;;4202194;28;20036;-69
2021/11/15 06:56:17;;;;;;;5.55;4.20;;;29.60;83.60;;;;;;4202461;28;20048;-69
2021/11/15 06:58:25;;;;;;;11.93;4.03;;;29.70;83.80;;;;;;4186129;28;20041;-70
2021/11/15 07:00:30;;;;;;;4.90;3.83;;;29.70;83.20;;;;;;4202722;28;20127;-68
2021/11/15 07:02:35;;;;;;;4.80;3.78;;;29.60;82.00;;;;;;4204907;28;20661;-70
2021/11/15 07:04:40;;;;;;;4.07;3.50;;;29.60;82.70;;;;;;4198825;28;20297;-69
2021/11/15 07:06:46;;;;;;;4.95;3.85;;;29.70;82.90;;;;;;4181639;28;20420;-68
2021/11/15 07:08:52;;;;;;;7.80;4.20;;;29.70;82.70;;;;;;4199123;28;20052;-68
2021/11/15 07:10:57;;;;;;;6.10;3.85;;;29.80;82.50;;;;;;4200792;28;20052;-69
2021/11/15 07:13:01;;;;;;;6.53;4.10;;;29.90;82.50;;;;;;4200591;28;20079;-70
2021/11/15 07:15:07;;;;;;;4.75;3.78;;;29.80;83.00;;;;;;4198747;28;20119;-70
2021/11/15 07:17:12;;;;;;;5.68;4.20;;;29.90;83.00;;;;;;4200270;28;20044;-69
2021/11/15 07:19:17;;;;;;;8.85;4.80;;;29.90;82.70;;;;;;4201718;28;20091;-69
2021/11/15 07:21:23;;;;;;;6.95;4.00;;;30.00;82.40;;;;;;4183628;28;20433;-69
2021/11/15 07:23:27;;;;;;;5.57;4.10;;;30.00;82.50;;;;;;4201959;28;20037;-69
2021/11/15 07:25:32;;;;;;;5.75;4.13;;;30.00;82.00;;;;;;4195974;28;20040;-69
2021/11/15 07:27:36;;;;;;;5.28;4.18;;;30.00;81.80;;;;;;4188884;28;20052;-69
2021/11/15 07:29:40;;;;;;;6.40;4.07;;;30.00;81.80;;;;;;4202882;28;20139;-70
2021/11/15 07:31:46;;;;;;;6.28;4.20;;;30.00;82.00;;;;;;4203864;28;20052;-69
2021/11/15 07:33:51;;;;;;;6.85;4.30;;;29.90;81.90;;;;;;4199831;28;20061;-68
2021/11/15 07:35:56;;;;;;;5.97;4.30;;;30.00;81.60;;;;;;4203945;28;20623;-69
2021/11/15 07:38:00;;;;;;;7.78;4.40;;;30.00;81.40;;;;;;4197975;28;21272;-67
2021/11/15 07:40:06;;;;;;;6.38;4.68;;;30.00;81.80;;;;;;4180035;28;20059;-69
2021/11/15 07:42:12;;;;;;;7.82;4.55;;;30.00;81.70;;;;;;4201875;28;20047;-69
2021/11/15 07:44:16;;;;;;;7.80;4.20;;;30.10;82.60;;;;;;4198431;28;20509;-68
2021/11/15 07:46:25;;;;;;;7.30;4.28;;;30.10;81.60;;;;;;4197873;28;20459;-69
2021/11/15 07:48:30;;;;;;;9.48;4.30;;;30.10;80.20;;;;;;4197299;28;20045;-69
2021/11/15 07:50:35;;;;;;;6.10;4.10;;;30.00;81.10;;;;;;4201380;28;20036;-69
2021/11/15 07:52:40;;;;;;;6.25;4.18;;;30.00;81.20;;;;;;4200165;28;20855;-69
2021/11/15 07:54:46;;;;;;;6.30;4.10;;;30.10;81.40;;;;;;4203150;28;20048;-69
2021/11/15 07:56:50;;;;;;;8.02;4.20;;;30.10;81.70;;;;;;4180947;28;20132;-69
2021/11/15 07:58:55;;;;;;;5.03;4.05;;;30.10;81.20;;;;;;4199730;28;20429;-68
2021/11/15 08:01:00;;;;;;;8.10;3.85;;;30.10;80.90;;;;;;4181950;28;20040;-69
2021/11/15 08:03:06;;;;;;;8.15;4.40;;;30.10;81.20;;;;;;4198843;28;20090;-69
2021/11/15 08:05:11;;;;;;;9.30;4.13;;;30.20;82.10;;;;;;4201564;28;20036;-69
2021/11/15 08:07:16;;;;;;;7.03;4.00;;;30.20;81.00;;;;;;4197691;28;20126;-69
2021/11/15 08:09:20;;;;;;;4.95;3.63;;;30.20;81.20;;;;;;4182554;28;20060;-69
2021/11/15 08:11:26;;;;;;;6.38;3.75;;;30.20;80.50;;;;;;4203255;28;20051;-69
2021/11/15 08:13:30;;;;;;;7.38;4.00;;;30.20;79.50;;;;;;4202303;28;20092;-69
2021/11/15 08:15:34;;;;;;;8.70;3.85;;;30.10;79.60;;;;;;4205107;28;20241;-69
2021/11/15 08:17:40;;;;;;;5.68;4.10;;;30.10;79.90;;;;;;4189196;28;20056;-69
2021/11/15 08:19:44;;;;;;;5.53;3.40;;;30.20;80.60;;;;;;4202351;28;20052;-69
2021/11/15 08:21:50;;;;;;;4.93;3.88;;;30.10;80.50;;;;;;4199763;28;20078;-69
2021/11/15 08:23:54;;;;;;;7.20;4.47;;;30.10;81.20;;;;;;4201533;28;20037;-68
2021/11/15 08:26:26;;;;;;;4.97;3.92;;;30.00;80.90;;;;;;4204716;28;20089;-68
2021/11/15 08:28:51;;;;;;;6.22;4.00;;;30.10;81.60;;;;;;4202459;28;20052;-69
2021/11/15 08:30:56;;;;;;;9.02;4.15;;;30.10;81.70;;;;;;4199042;28;20055;-68
2021/11/15 08:33:00;;;;;;;6.70;4.10;;;30.10;81.60;;;;;;4205928;28;20549;-69
2021/11/15 08:35:06;;;;;;;4.03;3.63;;;30.20;81.20;;;;;;4201149;28;20135;-69
2021/11/15 08:37:10;;;;;;;7.32;3.38;;;30.30;81.10;;;;;;4204548;28;20051;-68
2021/11/15 08:39:20;;;;;;;7.03;3.80;;;30.30;80.80;;;;;;4187310;28;20426;-68
2021/11/15 08:41:29;;;;;;;5.88;3.90;;;30.30;80.80;;;;;;4206895;28;20429;-69
2021/11/15 08:43:33;;;;;;;6.38;3.95;;;30.30;81.20;;;;;;4206892;28;20043;-68
2021/11/15 08:45:38;;;;;;;7.35;3.60;;;30.30;81.10;;;;;;4176396;28;20155;-68
2021/11/15 08:47:42;;;;;;;6.65;4.00;;;30.30;80.60;;;;;;4206077;28;20097;-68
2021/11/15 08:49:47;;;;;;;10.13;4.28;;;30.30;80.70;;;;;;4202175;28;20066;-68
2021/11/15 08:51:53;;;;;;;5.93;3.95;;;30.40;80.20;;;;;;4208488;28;20048;-68
2021/11/15 08:53:58;;;;;;;4.85;3.70;;;30.40;79.70;;;;;;4186044;28;20056;-69
2021/11/15 08:56:03;;;;;;;7.40;3.85;;;30.30;80.70;;;;;;4207023;28;20148;-69
2021/11/15 08:58:08;;;;;;;5.75;4.05;;;30.30;80.30;;;;;;4203432;28;20072;-69
2021/11/15 09:00:13;;;;;;;5.93;4.22;;;30.30;80.40;;;;;;4205657;28;20036;-68
2021/11/15 09:02:17;;;;;;;7.28;3.92;;;30.30;80.80;;;;;;4184475;28;20044;-69
2021/11/15 09:04:22;;;;;;;6.05;4.38;;;30.30;81.00;;;;;;4202302;28;20083;-69
2021/11/15 09:06:30;;;;;;;7.85;5.00;;;30.30;81.30;;;;;;4203275;28;20461;-69
2021/11/15 09:08:35;;;;;;;12.98;5.63;;;30.30;81.30;;;;;;4205482;28;20097;-69
2021/11/15 09:10:40;;;;;;;6.38;4.72;;;30.20;81.20;;;;;;4207585;28;20385;-69
2021/11/15 09:12:44;;;;;;;5.18;4.20;;;30.20;81.30;;;;;;4205560;28;20048;-70
2021/11/15 09:14:51;;;;;;;6.00;4.20;;;30.10;81.20;;;;;;4205659;28;20418;-69
2021/11/15 09:16:56;;;;;;;6.80;4.07;;;30.10;81.70;;;;;;4186674;28;20129;-69
2021/11/15 09:19:00;;;;;;;6.80;4.20;;;30.10;81.60;;;;;;4189269;28;20072;-69
2021/11/15 09:21:07;;;;;;;7.28;3.83;;;30.00;81.60;;;;;;4207761;28;20040;-70
2021/11/15 09:23:12;;;;;;;6.93;3.85;;;30.00;81.50;;;;;;4209265;28;20509;-71
2021/11/15 09:25:17;;;;;;;13.90;4.60;;;29.90;81.70;;;;;;4203062;28;20517;-70
2021/11/15 09:27:21;;;;;;;5.30;3.90;;;29.90;82.00;;;;;;4207992;28;20134;-69
2021/11/15 09:29:26;;;;;;;7.40;4.03;;;29.90;81.20;;;;;;4206583;28;20544;-69
2021/11/15 09:31:30;;;;;;;6.65;4.13;;;29.90;81.20;;;;;;4206192;28;20052;-69
2021/11/15 09:33:35;;;;;;;9.73;4.78;;;29.90;81.70;;;;;;4189121;28;20040;-68
2021/11/15 09:35:48;;;;;;;7.85;4.78;;;29.80;82.10;;;;;;4204022;28;20056;-69
2021/11/15 09:37:52;;;;;;;9.85;4.10;;;29.80;82.50;;;;;;4189914;28;20098;-69
2021/11/15 09:40:00;;;;;;;5.47;4.05;;;29.80;82.70;;;;;;4202112;28;20067;-70
2021/11/15 09:42:04;;;;;;;7.05;4.47;;;29.80;82.80;;;;;;4209639;28;20058;-69
2021/11/15 09:44:09;;;;;;;7.60;4.75;;;29.80;82.90;;;;;;4205463;28;20033;-70
2021/11/15 09:46:16;;;;;;;8.80;4.88;;;29.80;83.20;;;;;;4188191;28;20321;-69
2021/11/15 09:48:20;;;;;;;9.90;5.70;;;29.70;83.20;;;;;;4202473;28;20044;-68
2021/11/15 09:50:29;;;;;;;10.93;5.50;;;29.70;83.20;;;;;;4202738;28;20052;-68
2021/11/15 09:52:33;;;;;;;10.32;5.45;;;29.70;83.20;;;;;;4205419;28;20200;-68
2021/11/15 09:54:38;;;;;;;11.07;7.28;;;29.70;83.40;;;;;;4204392;28;20162;-68
2021/11/15 09:57:01;;;;;;;;;;;29.70;83.50;;;;;;4204203;28;20539;-68
2021/11/15 09:59:10;;;;;;;23.73;10.18;;;29.70;83.40;;;;;;4192203;28;19925;-69
2021/11/15 10:01:15;;;;;;;16.63;9.68;;;29.60;83.60;;;;;;4206349;28;20048;-68
2021/11/15 10:03:20;;;;;;;10.80;8.10;;;29.60;83.70;;;;;;4204266;28;20131;-69
2021/11/15 10:05:24;;;;;;;13.90;7.15;;;29.60;83.60;;;;;;4206013;28;20044;-69
2021/11/15 10:07:50;;;;;;;11.48;6.47;;;29.50;83.60;;;;;;4203756;28;20059;-69
2021/11/15 10:09:55;;;;;;;15.00;6.60;;;29.50;83.50;;;;;;4205018;28;20044;-69
2021/11/15 10:12:07;;;;;;;16.05;6.55;;;29.50;83.60;;;;;;4203817;28;20083;-69
2021/11/15 10:14:14;;;;;;;12.82;7.40;;;29.50;83.60;;;;;;4205825;28;20105;-68
2021/11/15 10:16:22;;;;;;;15.55;7.68;;;29.50;83.80;;;;;;4204105;28;20050;-69
2021/11/15 10:18:56;;;;;;;16.67;8.30;;;29.50;83.80;;;;;;4205590;28;20048;-68
2021/11/15 10:21:05;;;;;;;14.13;8.25;;;29.50;83.90;;;;;;4204506;28;20058;-70
2021/11/15 10:23:30;;;;;;;13.95;8.50;;;29.50;84.00;;;;;;4205346;28;20040;-68
2021/11/15 10:25:35;;;;;;;12.90;7.97;;;29.50;84.10;;;;;;4186453;28;20511;-71
2021/11/15 10:27:39;;;;;;;11.93;8.57;;;29.50;84.10;;;;;;4203674;28;20119;-69
2021/11/15 10:29:48;;;;;;;16.27;8.70;;;29.50;84.20;;;;;;4201264;28;20139;-71
2021/11/15 10:32:04;;;;;;;23.13;9.90;;;29.50;84.20;;;;;;4182437;28;20507;-69
2021/11/15 10:34:48;;;;;;;17.70;9.98;;;29.50;84.40;;;;;;4185617;28;20041;-68
2021/11/15 10:37:19;;;;;;;16.90;9.82;;;29.50;84.50;;;;;;4192481;28;20590;-70
2021/11/15 10:39:26;;;;;;;15.73;9.23;;;29.50;85.00;;;;;;4199974;28;20044;-69
2021/11/15 10:41:31;;;;;;;16.98;8.90;;;29.40;85.20;;;;;;4201910;28;20267;-69
2021/11/15 10:43:35;;;;;;;14.52;7.93;;;29.40;85.30;;;;;;4201954;28;20037;-70
2021/11/15 10:45:40;;;;;;;13.73;7.90;;;29.40;85.40;;;;;;4179472;28;20067;-70
2021/11/15 10:47:59;;;;;;;16.05;8.40;;;29.40;85.70;;;;;;4194963;28;20040;-69
2021/11/15 10:50:16;;;;;;;14.20;8.57;;;29.40;85.90;;;;;;4203501;28;20131;-70